createdAt,value
2023-06-16T00:00:38.886Z,0.50
2023-06-16T00:02:45.022Z,0.50
2023-06-16T00:04:50.539Z,0.40
2023-06-16T00:06:54.058Z,0.50
2023-06-16T00:08:56.064Z,0.40
2023-06-16T00:10:57.981Z,0.40
2023-06-16T00:12:59.900Z,0.50
2023-06-16T00:15:01.800Z,0.50
2023-06-16T00:17:04.877Z,0.40
2023-06-16T00:19:06.577Z,0.40
2023-06-16T00:21:10.903Z,0.40
2023-06-16T00:23:17.532Z,0.60
2023-06-16T00:25:20.065Z,0.35
2023-06-16T00:27:24.751Z,0.50
2023-06-16T00:29:26.379Z,0.50
2023-06-16T00:31:28.328Z,0.40
2023-06-16T00:33:30.110Z,0.50
2023-06-16T00:35:31.791Z,0.55
2023-06-16T00:37:33.557Z,0.47
2023-06-16T00:39:35.322Z,0.40
2023-06-16T00:41:37.082Z,0.50
2023-06-16T00:43:38.820Z,0.40
2023-06-16T00:45:40.478Z,0.40
2023-06-16T00:47:42.573Z,0.40
2023-06-16T00:49:44.269Z,0.40
2023-06-16T00:51:47.870Z,0.50
2023-06-16T00:53:49.546Z,0.40
2023-06-16T00:55:51.746Z,0.40
2023-06-16T00:57:54.958Z,0.45
2023-06-16T00:59:56.827Z,0.30
2023-06-16T01:01:58.964Z,0.40
2023-06-16T01:04:00.705Z,0.40
2023-06-16T01:06:07.615Z,0.30
2023-06-16T01:08:22.999Z,0.40
2023-06-16T01:10:34.590Z,0.43
2023-06-16T01:12:49.753Z,0.35
2023-06-16T01:15:11.052Z,0.32
2023-06-16T01:17:16.193Z,0.40
2023-06-16T01:19:29.343Z,0.30
2023-06-16T01:21:44.212Z,0.40
2023-06-16T01:24:07.059Z,0.40
2023-06-16T01:26:10.499Z,0.38
2023-06-16T01:28:14.720Z,0.30
2023-06-16T01:30:18.325Z,0.30
2023-06-16T01:32:21.324Z,0.40
2023-06-16T01:34:24.023Z,0.40
2023-06-16T01:36:26.896Z,0.40
2023-06-16T01:38:29.315Z,0.40
2023-06-16T01:40:32.052Z,0.40
2023-06-16T01:42:34.144Z,0.40
2023-06-16T01:44:37.166Z,0.50
2023-06-16T01:46:40.099Z,0.40
2023-06-16T01:48:41.769Z,0.38
2023-06-16T01:50:44.030Z,0.30
2023-06-16T01:52:45.718Z,0.38
2023-06-16T01:54:47.407Z,0.40
2023-06-16T01:56:49.089Z,0.50
2023-06-16T01:58:51.054Z,0.30
2023-06-16T02:01:30.676Z,0.40
2023-06-16T02:03:49.698Z,0.40
2023-06-16T02:05:54.086Z,0.50
2023-06-16T02:08:01.014Z,0.40
2023-06-16T02:10:04.652Z,0.40
2023-06-16T02:12:08.324Z,0.43
2023-06-16T02:14:11.525Z,0.40
2023-06-16T02:16:13.453Z,0.40
2023-06-16T02:18:15.118Z,0.40
2023-06-16T02:20:17.375Z,0.30
2023-06-16T02:22:19.378Z,0.43
2023-06-16T02:24:20.977Z,0.40
2023-06-16T02:26:22.877Z,0.35
2023-06-16T02:28:24.493Z,0.40
2023-06-16T02:30:26.214Z,0.40
2023-06-16T02:32:28.788Z,0.40
2023-06-16T02:34:30.456Z,0.30
2023-06-16T02:36:34.343Z,0.30
2023-06-16T02:38:36.093Z,0.50
2023-06-16T02:40:41.035Z,0.40
2023-06-16T02:42:42.764Z,0.30
2023-06-16T02:44:44.494Z,0.30
2023-06-16T02:46:46.300Z,0.30
2023-06-16T02:48:47.976Z,0.40
2023-06-16T02:52:56.274Z,0.40
2023-06-16T02:54:58.171Z,0.40
2023-06-16T02:56:59.951Z,0.30
2023-06-16T02:59:01.633Z,0.30
2023-06-16T03:05:19.401Z,0.40
2023-06-16T03:07:21.538Z,0.30
2023-06-16T03:09:23.124Z,0.30
2023-06-16T03:11:24.911Z,0.32
2023-06-16T03:17:39.851Z,0.30
2023-06-16T03:19:43.278Z,0.40
2023-06-16T03:21:51.194Z,0.40
2023-06-16T03:23:52.985Z,0.40
2023-06-16T03:25:54.586Z,0.40
2023-06-16T03:27:56.405Z,0.47
2023-06-16T03:29:58.291Z,0.50
2023-06-16T03:31:59.939Z,0.30
2023-06-16T03:34:11.118Z,0.40
2023-06-16T03:36:23.216Z,0.50
2023-06-16T03:38:24.796Z,0.30
2023-06-16T03:40:26.438Z,0.40
2023-06-16T03:42:28.189Z,0.30
2023-06-16T03:44:29.852Z,0.40
2023-06-16T03:46:34.530Z,0.32
2023-06-16T03:48:36.489Z,0.40
2023-06-16T03:50:38.305Z,0.30
2023-06-16T03:52:39.952Z,0.40
2023-06-16T03:54:42.010Z,0.32
2023-06-16T03:56:43.585Z,0.38
2023-06-16T03:58:45.147Z,0.40
2023-06-16T04:00:47.242Z,0.40
2023-06-16T04:02:49.454Z,0.30
2023-06-16T04:04:52.552Z,0.40
2023-06-16T04:06:54.315Z,0.40
2023-06-16T04:08:57.821Z,0.50
2023-06-16T04:10:59.748Z,0.30
2023-06-16T04:13:01.585Z,0.30
2023-06-16T04:15:04.998Z,0.30
2023-06-16T04:17:06.654Z,0.40
2023-06-16T04:19:08.253Z,0.30
2023-06-16T04:21:09.854Z,0.40
2023-06-16T04:23:11.451Z,0.30
2023-06-16T04:25:13.617Z,0.40
2023-06-16T04:27:16.539Z,0.30
2023-06-16T04:29:18.763Z,0.40
2023-06-16T04:31:23.725Z,0.32
2023-06-16T04:33:25.478Z,0.30
2023-06-16T04:35:34.824Z,0.50
2023-06-16T04:37:36.462Z,0.40
2023-06-16T04:39:38.692Z,0.32
2023-06-16T04:41:40.304Z,0.40
2023-06-16T04:43:42.422Z,0.40
2023-06-16T04:45:44.043Z,0.47
2023-06-16T04:47:45.868Z,0.40
2023-06-16T04:49:47.570Z,0.30
2023-06-16T04:51:49.129Z,0.30
2023-06-16T04:53:50.862Z,0.40
2023-06-16T04:55:52.498Z,0.30
2023-06-16T04:57:55.010Z,0.30
2023-06-16T04:59:56.706Z,0.50
2023-06-16T05:01:59.014Z,0.40
2023-06-16T05:04:01.459Z,0.40
2023-06-16T05:06:03.230Z,0.30
2023-06-16T05:08:05.239Z,0.40
2023-06-16T05:10:07.854Z,0.30
2023-06-16T05:12:10.286Z,0.20
2023-06-16T05:14:11.894Z,0.30
2023-06-16T05:16:13.498Z,0.20
2023-06-16T05:18:15.326Z,0.30
2023-06-16T05:20:17.217Z,0.30
2023-06-16T05:22:24.794Z,0.32
2023-06-16T05:24:26.833Z,0.50
2023-06-16T05:26:28.424Z,0.30
2023-06-16T05:28:30.070Z,0.40
2023-06-16T05:30:31.785Z,0.32
2023-06-16T05:32:33.381Z,0.40
2023-06-16T05:34:36.390Z,0.50
2023-06-16T05:36:38.081Z,0.40
2023-06-16T05:38:39.903Z,0.40
2023-06-16T05:40:41.617Z,0.40
2023-06-16T05:42:43.336Z,0.30
2023-06-16T05:44:46.172Z,0.35
2023-06-16T05:46:47.770Z,0.50
2023-06-16T05:48:49.545Z,0.40
2023-06-16T05:50:51.345Z,0.40
2023-06-16T05:52:52.973Z,0.40
2023-06-16T05:54:54.714Z,0.30
2023-06-16T05:56:57.562Z,0.30
2023-06-16T05:58:59.174Z,0.40
2023-06-16T06:01:00.896Z,0.30
2023-06-16T06:03:03.470Z,0.35
2023-06-16T06:05:05.566Z,0.30
2023-06-16T06:07:07.263Z,0.50
2023-06-16T06:09:08.914Z,0.40
2023-06-16T06:11:13.054Z,0.40
2023-06-16T06:13:14.878Z,0.50
2023-06-16T06:15:18.907Z,0.50
2023-06-16T06:17:20.504Z,0.50
2023-06-16T06:19:24.447Z,0.32
2023-06-16T06:21:26.067Z,0.40
2023-06-16T06:23:28.611Z,0.50
2023-06-16T06:25:30.231Z,0.50
2023-06-16T06:27:31.949Z,0.40
2023-06-16T06:29:33.790Z,0.40
2023-06-16T06:31:35.904Z,0.38
2023-06-16T06:33:37.556Z,0.40
2023-06-16T06:35:39.397Z,0.38
2023-06-16T06:37:41.435Z,0.50
2023-06-16T06:39:43.460Z,0.40
2023-06-16T06:41:45.395Z,0.40
2023-06-16T06:43:47.126Z,0.30
2023-06-16T06:45:50.251Z,0.30
2023-06-16T06:47:51.946Z,0.40
2023-06-16T06:49:55.645Z,0.40
2023-06-16T06:51:57.376Z,0.43
2023-06-16T06:53:58.980Z,0.40
2023-06-16T06:56:00.608Z,0.30
2023-06-16T06:58:02.688Z,0.40
2023-06-16T07:00:04.776Z,0.40
2023-06-16T07:02:07.271Z,0.43
2023-06-16T07:04:09.134Z,0.40
2023-06-16T07:06:11.211Z,0.40
2023-06-16T07:08:12.850Z,0.40
2023-06-16T07:10:14.630Z,0.30
2023-06-16T07:12:17.361Z,0.40
2023-06-16T07:14:18.958Z,0.40
2023-06-16T07:16:20.747Z,0.40
2023-06-16T07:18:22.400Z,0.30
2023-06-16T07:20:24.037Z,0.40
2023-06-16T07:22:25.785Z,0.50
2023-06-16T07:24:27.526Z,0.30
2023-06-16T07:26:29.157Z,0.40
2023-06-16T07:28:30.749Z,0.30
2023-06-16T07:30:32.462Z,0.50
2023-06-16T07:32:34.787Z,0.40
2023-06-16T07:34:38.229Z,0.30
2023-06-16T07:36:39.886Z,0.40
2023-06-16T07:38:41.565Z,0.50
2023-06-16T07:40:43.188Z,0.50
2023-06-16T07:42:48.177Z,0.60
2023-06-16T07:44:49.741Z,0.50
2023-06-16T07:46:51.411Z,0.50
2023-06-16T07:48:53.040Z,0.40
2023-06-16T07:50:54.654Z,0.40
2023-06-16T07:52:56.437Z,0.40
2023-06-16T07:54:58.016Z,0.52
2023-06-16T07:56:59.629Z,0.38
2023-06-16T07:59:01.440Z,0.43
2023-06-16T08:01:04.206Z,0.50
2023-06-16T08:03:06.097Z,0.40
2023-06-16T08:05:09.190Z,0.40
2023-06-16T08:07:11.023Z,0.50
2023-06-16T08:09:13.655Z,0.43
2023-06-16T08:11:15.350Z,0.50
2023-06-16T08:13:16.980Z,0.50
2023-06-16T08:15:19.675Z,0.50
2023-06-16T08:17:21.449Z,0.60
2023-06-16T08:19:23.021Z,0.43
2023-06-16T08:21:24.871Z,0.30
2023-06-16T08:23:26.942Z,0.50
2023-06-16T08:25:28.694Z,0.50
2023-06-16T08:27:30.446Z,0.50
2023-06-16T08:29:32.061Z,0.50
2023-06-16T08:31:33.693Z,0.50
2023-06-16T08:33:36.212Z,0.60
2023-06-16T08:35:37.895Z,0.55
2023-06-16T08:37:40.229Z,0.47
2023-06-16T08:39:45.414Z,0.60
2023-06-16T08:41:50.627Z,0.40
2023-06-16T08:43:54.937Z,0.45
2023-06-16T08:45:57.713Z,0.50
2023-06-16T08:48:00.093Z,0.40
2023-06-16T08:50:02.362Z,0.60
2023-06-16T08:52:07.343Z,0.60
2023-06-16T08:54:10.282Z,0.52
2023-06-16T08:56:12.188Z,0.60
2023-06-16T08:58:14.521Z,0.40
2023-06-16T09:00:18.403Z,0.40
2023-06-16T09:02:22.457Z,0.40
2023-06-16T09:04:24.130Z,0.50
2023-06-16T09:06:26.496Z,0.40
2023-06-16T09:08:28.758Z,0.40
2023-06-16T09:12:37.270Z,0.50
2023-06-16T09:14:40.246Z,0.50
2023-06-16T09:16:42.382Z,0.40
2023-06-16T09:18:45.977Z,0.50
2023-06-16T09:20:52.317Z,0.40
2023-06-16T09:23:00.544Z,0.40
2023-06-16T09:25:10.311Z,0.50
2023-06-16T09:27:13.872Z,0.47
2023-06-16T09:29:24.744Z,0.45
2023-06-16T09:31:28.455Z,0.60
2023-06-16T09:33:30.770Z,0.40
2023-06-16T09:35:32.517Z,0.50
2023-06-16T09:37:34.147Z,0.50
2023-06-16T09:39:36.220Z,0.50
2023-06-16T09:41:44.254Z,0.50
2023-06-16T09:43:46.134Z,0.40
2023-06-16T09:45:57.421Z,0.47
2023-06-16T09:48:04.589Z,0.55
2023-06-16T09:50:07.946Z,0.50
2023-06-16T09:52:09.605Z,0.60
2023-06-16T09:54:12.042Z,0.60
2023-06-16T09:56:17.817Z,0.50
2023-06-16T09:58:24.121Z,0.40
2023-06-16T10:00:35.747Z,0.50
2023-06-16T10:02:39.244Z,0.50
2023-06-16T10:04:43.011Z,0.50
2023-06-16T10:06:53.205Z,0.40
2023-06-16T10:08:57.281Z,0.38
2023-06-16T10:10:58.922Z,0.50
2023-06-16T10:13:05.168Z,0.50
2023-06-16T10:15:10.976Z,0.40
2023-06-16T10:17:15.264Z,0.60
2023-06-16T10:19:20.191Z,0.50
2023-06-16T10:21:24.141Z,0.43
2023-06-16T10:25:32.024Z,0.60
2023-06-16T10:27:34.677Z,0.50
2023-06-16T10:29:37.220Z,0.47
2023-06-16T10:31:40.528Z,0.50
2023-06-16T10:33:54.406Z,0.43
2023-06-16T10:36:15.930Z,0.50
2023-06-16T10:38:23.982Z,0.50
2023-06-16T10:40:26.103Z,0.50
2023-06-16T10:42:35.202Z,0.50
2023-06-16T10:44:37.270Z,0.45
2023-06-16T10:46:39.564Z,0.52
2023-06-16T10:49:08.462Z,0.40
2023-06-16T10:51:10.367Z,0.50
2023-06-16T10:53:17.937Z,0.40
2023-06-16T10:55:34.673Z,0.43
2023-06-16T10:57:37.658Z,0.40
2023-06-16T11:00:13.840Z,0.50
2023-06-16T11:02:20.118Z,0.40
2023-06-16T11:04:22.209Z,0.40
2023-06-16T11:06:23.790Z,0.50
2023-06-16T11:08:26.129Z,0.40
2023-06-16T11:10:28.054Z,0.57
2023-06-16T11:14:36.406Z,0.50
2023-06-16T11:16:38.001Z,0.40
2023-06-16T11:18:39.804Z,0.60
2023-06-16T11:20:42.398Z,0.45
2023-06-16T11:24:50.919Z,0.50
2023-06-16T11:26:52.509Z,0.40
2023-06-16T11:28:54.382Z,0.43
2023-06-16T11:30:56.254Z,0.40
2023-06-16T11:37:12.152Z,0.60
2023-06-16T11:39:13.711Z,0.60
2023-06-16T11:41:23.833Z,0.60
2023-06-16T11:43:27.084Z,0.52
2023-06-16T11:45:33.078Z,0.60
2023-06-16T11:47:34.933Z,0.60
2023-06-16T11:49:37.450Z,0.60
2023-06-16T11:51:39.063Z,0.70
2023-06-16T11:53:41.481Z,0.52
2023-06-16T11:55:50.145Z,0.50
2023-06-16T11:57:52.372Z,0.60
2023-06-16T11:59:54.242Z,0.50
2023-06-16T12:02:00.824Z,0.60
2023-06-16T12:04:05.875Z,0.57
2023-06-16T12:06:10.908Z,0.50
2023-06-16T12:08:12.685Z,0.60
2023-06-16T12:10:16.048Z,0.70
2023-06-16T12:12:17.711Z,0.65
2023-06-16T12:14:21.992Z,0.70
2023-06-16T12:16:23.901Z,0.60
2023-06-16T12:18:26.806Z,0.60
2023-06-16T12:20:28.480Z,0.47
2023-06-16T12:22:36.446Z,0.57
2023-06-16T12:24:41.821Z,0.60
2023-06-16T12:26:44.668Z,0.70
2023-06-16T12:28:46.803Z,0.70
2023-06-16T12:30:48.460Z,0.60
2023-06-16T12:34:56.728Z,0.77
2023-06-16T12:39:21.785Z,0.90
2023-06-16T12:41:23.580Z,1.20
2023-06-16T12:43:26.552Z,1.05
2023-06-16T12:45:28.743Z,1.00
2023-06-16T12:53:54.966Z,0.90
2023-06-16T12:55:56.586Z,0.80
2023-06-16T12:57:58.390Z,0.77
2023-06-16T13:02:07.989Z,0.70
2023-06-16T13:04:09.614Z,0.50
2023-06-16T13:06:12.615Z,0.50
2023-06-16T13:08:14.253Z,0.70
2023-06-16T13:10:16.206Z,0.73
2023-06-16T13:12:17.862Z,0.60
2023-06-16T13:14:22.734Z,0.70
2023-06-16T13:16:24.867Z,0.55
2023-06-16T13:18:26.793Z,0.70
2023-06-16T13:20:28.396Z,0.80
2023-06-16T13:22:31.961Z,0.52
2023-06-16T13:24:33.636Z,0.70
2023-06-16T13:26:35.546Z,0.50
2023-06-16T13:28:38.747Z,0.50
2023-06-16T13:30:40.439Z,0.50
2023-06-16T13:32:42.419Z,0.65
2023-06-16T13:34:44.142Z,0.43
2023-06-16T13:36:46.231Z,0.60
2023-06-16T13:38:51.831Z,0.60
2023-06-16T13:40:53.512Z,0.60
2023-06-16T13:42:55.327Z,0.68
2023-06-16T13:44:57.064Z,0.43
2023-06-16T13:46:58.785Z,0.60
2023-06-16T13:49:00.539Z,0.60
2023-06-16T13:51:02.639Z,0.60
2023-06-16T13:53:04.330Z,0.60
2023-06-16T13:55:06.513Z,0.40
2023-06-16T13:57:08.272Z,0.60
2023-06-16T13:59:10.104Z,0.60
2023-06-16T14:01:11.759Z,0.60
2023-06-16T14:03:13.963Z,0.50
2023-06-16T14:05:15.677Z,0.63
2023-06-16T14:07:17.350Z,0.60
2023-06-16T14:09:18.939Z,0.73
2023-06-16T14:11:20.589Z,0.50
2023-06-16T14:13:22.312Z,0.68
2023-06-16T14:15:24.456Z,0.60
2023-06-16T14:17:26.072Z,0.50
2023-06-16T14:19:31.869Z,0.50
2023-06-16T14:21:36.951Z,0.70
2023-06-16T14:23:38.590Z,0.60
2023-06-16T14:25:40.396Z,0.70
2023-06-16T14:27:42.132Z,0.50
2023-06-16T14:29:44.001Z,0.50
2023-06-16T14:31:45.872Z,0.70
2023-06-16T14:33:50.812Z,0.70
2023-06-16T14:35:52.400Z,0.50
2023-06-16T14:37:53.975Z,0.60
2023-06-16T14:39:55.740Z,0.60
2023-06-16T14:41:57.336Z,0.60
2023-06-16T14:43:58.937Z,0.70
2023-06-16T14:46:00.625Z,0.60
2023-06-16T14:48:02.463Z,0.50
2023-06-16T14:50:04.449Z,0.50
2023-06-16T14:52:07.073Z,0.50
2023-06-16T14:54:08.678Z,0.50
2023-06-16T14:56:10.743Z,0.50
2023-06-16T14:58:12.344Z,0.50
2023-06-16T15:00:14.790Z,0.50
2023-06-16T15:02:18.951Z,0.50
2023-06-16T15:04:21.183Z,0.60
2023-06-16T15:06:23.724Z,0.55
2023-06-16T15:08:25.303Z,0.50
2023-06-16T15:10:26.922Z,0.30
2023-06-16T15:12:28.520Z,0.40
2023-06-16T15:14:30.283Z,0.40
2023-06-16T15:16:32.004Z,0.40
2023-06-16T15:18:33.743Z,0.50
2023-06-16T15:20:35.725Z,0.45
2023-06-16T15:22:37.444Z,0.47
2023-06-16T15:24:39.262Z,0.70
2023-06-16T15:26:41.308Z,0.60
2023-06-16T15:28:43.758Z,0.60
2023-06-16T15:30:45.477Z,0.50
2023-06-16T15:32:47.220Z,0.40
2023-06-16T15:34:48.867Z,0.52
2023-06-16T15:36:50.781Z,0.50
2023-06-16T15:38:52.486Z,0.45
2023-06-16T15:40:54.117Z,0.60
2023-06-16T15:43:06.986Z,0.45
2023-06-16T15:45:08.900Z,0.60
2023-06-16T15:47:10.693Z,0.63
2023-06-16T15:49:12.722Z,0.60
2023-06-16T15:51:14.412Z,0.60
2023-06-16T15:53:16.126Z,0.40
2023-06-16T15:55:17.806Z,0.50
2023-06-16T15:57:19.434Z,0.57
2023-06-16T15:59:21.467Z,0.60
2023-06-16T16:01:23.999Z,0.50
2023-06-16T16:03:25.910Z,0.40
2023-06-16T16:05:27.878Z,0.60
2023-06-16T16:07:32.837Z,0.60
2023-06-16T16:09:34.607Z,0.60
2023-06-16T16:11:37.881Z,0.50
2023-06-16T16:13:39.644Z,0.60
2023-06-16T16:15:41.397Z,0.57
2023-06-16T16:17:43.084Z,0.40
2023-06-16T16:19:45.900Z,0.50
2023-06-16T16:21:47.592Z,0.50
2023-06-16T16:23:49.348Z,0.47
2023-06-16T16:25:51.031Z,0.50
2023-06-16T16:27:52.747Z,0.50
2023-06-16T16:29:54.526Z,0.60
2023-06-16T16:31:58.985Z,0.50
2023-06-16T16:34:00.794Z,0.50
2023-06-16T16:36:02.498Z,0.45
2023-06-16T16:38:04.323Z,0.50
2023-06-16T16:40:06.795Z,0.60
2023-06-16T16:42:08.705Z,0.63
2023-06-16T16:44:10.394Z,0.70
2023-06-16T16:46:12.041Z,0.60
2023-06-16T16:48:13.738Z,0.70
2023-06-16T16:50:15.719Z,0.70
2023-06-16T16:52:17.280Z,0.60
2023-06-16T16:54:20.170Z,0.60
2023-06-16T16:56:22.029Z,0.60
2023-06-16T16:58:23.706Z,0.50
2023-06-16T17:00:25.675Z,0.52
2023-06-16T17:02:27.344Z,0.57
2023-06-16T17:04:29.059Z,0.60
2023-06-16T17:06:30.755Z,0.60
2023-06-16T17:08:32.926Z,0.60
2023-06-16T17:10:34.641Z,0.60
2023-06-16T17:12:36.376Z,0.52
2023-06-16T17:14:38.157Z,0.60
2023-06-16T17:16:39.788Z,0.55
2023-06-16T17:18:41.442Z,0.50
2023-06-16T17:20:43.155Z,0.45
2023-06-16T17:22:44.837Z,0.60
2023-06-16T17:24:46.461Z,0.50
2023-06-16T17:26:49.814Z,0.50
2023-06-16T17:28:51.729Z,0.50
2023-06-16T17:30:53.413Z,0.60
2023-06-16T17:32:59.286Z,0.50
2023-06-16T17:35:01.995Z,0.55
2023-06-16T17:37:03.981Z,0.70
2023-06-16T17:39:07.134Z,0.50
2023-06-16T17:41:08.793Z,0.60
2023-06-16T17:43:10.382Z,0.60
2023-06-16T17:45:12.265Z,0.50
2023-06-16T17:47:14.150Z,0.80
2023-06-16T17:49:19.921Z,0.50
2023-06-16T17:51:21.661Z,0.70
2023-06-16T17:53:23.333Z,0.70
2023-06-16T17:55:25.195Z,0.63
2023-06-16T17:57:26.857Z,0.60
2023-06-16T17:59:29.037Z,0.50
2023-06-16T18:01:31.589Z,0.60
2023-06-16T18:03:33.398Z,0.60
2023-06-16T18:05:35.085Z,0.50
2023-06-16T18:07:37.626Z,0.57
2023-06-16T18:09:39.414Z,0.50
2023-06-16T18:11:41.146Z,0.50
2023-06-16T18:13:42.863Z,0.57
2023-06-16T18:15:45.109Z,0.50
2023-06-16T18:17:46.734Z,0.50
2023-06-16T18:19:48.375Z,0.50
2023-06-16T18:21:50.227Z,0.50
2023-06-16T18:23:51.884Z,0.50
2023-06-16T18:25:53.742Z,0.50
2023-06-16T18:27:57.131Z,0.50
2023-06-16T18:29:58.752Z,0.55
2023-06-16T18:32:02.810Z,0.40
2023-06-16T18:34:04.549Z,0.60
2023-06-16T18:36:06.611Z,0.43
2023-06-16T18:38:09.127Z,0.57
2023-06-16T18:40:12.020Z,0.60
2023-06-16T18:42:13.851Z,0.55
2023-06-16T18:44:16.577Z,0.50
2023-06-16T18:46:18.200Z,0.60
2023-06-16T18:48:19.793Z,0.43
2023-06-16T18:50:21.857Z,0.60
2023-06-16T18:52:23.613Z,0.50
2023-06-16T18:54:25.564Z,0.40
2023-06-16T18:56:30.840Z,0.50
2023-06-16T18:58:33.110Z,0.50
2023-06-16T19:00:34.794Z,0.45
2023-06-16T19:02:36.962Z,0.50
2023-06-16T19:04:38.768Z,0.60
2023-06-16T19:06:40.659Z,0.60
2023-06-16T19:08:47.532Z,0.50
2023-06-16T19:10:50.346Z,0.50
2023-06-16T19:12:53.726Z,0.50
2023-06-16T19:14:55.587Z,0.50
2023-06-16T19:16:57.465Z,0.50
2023-06-16T19:18:59.209Z,0.60
2023-06-16T19:21:00.884Z,0.40
2023-06-16T19:23:02.648Z,0.50
2023-06-16T19:25:04.684Z,0.47
2023-06-16T19:27:07.016Z,0.50
2023-06-16T19:29:08.674Z,0.40
2023-06-16T19:31:11.158Z,0.50
2023-06-16T19:33:15.007Z,0.50
2023-06-16T19:35:16.864Z,0.50
2023-06-16T19:37:18.606Z,0.40
2023-06-16T19:39:21.250Z,0.50
2023-06-16T19:41:25.544Z,0.47
2023-06-16T19:43:27.263Z,0.50
2023-06-16T19:45:29.310Z,0.43
2023-06-16T19:47:31.208Z,0.50
2023-06-16T19:49:32.944Z,0.50
2023-06-16T19:51:34.506Z,0.60
2023-06-16T19:53:36.148Z,0.50
2023-06-16T19:55:49.157Z,0.45
2023-06-16T19:57:51.584Z,0.50
2023-06-16T19:59:53.311Z,0.50
2023-06-16T20:01:54.965Z,0.50
2023-06-16T20:03:56.601Z,0.50
2023-06-16T20:05:58.218Z,0.45
2023-06-16T20:07:59.894Z,0.50
2023-06-16T20:10:01.541Z,0.60
2023-06-16T20:12:05.293Z,0.50
2023-06-16T20:14:06.953Z,0.40
2023-06-16T20:16:08.794Z,0.50
2023-06-16T20:18:10.457Z,0.40
2023-06-16T20:20:12.434Z,0.60
2023-06-16T20:22:14.436Z,0.50
2023-06-16T20:24:16.187Z,0.60
2023-06-16T20:26:17.911Z,0.60
2023-06-16T20:28:19.545Z,0.50
2023-06-16T20:30:21.744Z,0.50
2023-06-16T20:32:23.634Z,0.57
2023-06-16T20:34:25.294Z,0.50
2023-06-16T20:36:27.559Z,0.57
2023-06-16T20:38:30.326Z,0.60
2023-06-16T20:40:32.226Z,0.60
2023-06-16T20:42:36.660Z,0.50
2023-06-16T20:44:38.313Z,0.47
2023-06-16T20:46:40.233Z,0.50
2023-06-16T20:48:44.579Z,0.70
2023-06-16T20:50:46.428Z,0.60
2023-06-16T20:52:51.620Z,0.40
2023-06-16T20:54:53.836Z,0.50
2023-06-16T20:56:57.728Z,0.40
2023-06-16T20:59:00.165Z,0.60
2023-06-16T21:01:02.819Z,0.50
2023-06-16T21:03:06.103Z,0.50
2023-06-16T21:05:12.175Z,0.40
2023-06-16T21:07:14.544Z,0.50
2023-06-16T21:09:16.841Z,0.60
2023-06-16T21:11:18.413Z,0.50
2023-06-16T21:13:21.603Z,0.45
2023-06-16T21:15:23.672Z,0.47
2023-06-16T21:17:25.465Z,0.40
2023-06-16T21:19:37.725Z,0.40
2023-06-16T21:21:47.744Z,0.50
2023-06-16T21:23:49.438Z,0.45
2023-06-16T21:25:52.377Z,0.40
2023-06-16T21:27:54.046Z,0.30
2023-06-16T21:29:55.664Z,0.47
2023-06-16T21:31:57.225Z,0.50
2023-06-16T21:33:59.114Z,0.40
2023-06-16T21:36:00.877Z,0.40
2023-06-16T21:38:03.909Z,0.50
2023-06-16T21:40:09.206Z,0.50
2023-06-16T21:42:11.273Z,0.45
2023-06-16T21:44:12.893Z,0.50
2023-06-16T21:46:14.565Z,0.60
2023-06-16T21:48:16.283Z,0.50
2023-06-16T21:50:18.102Z,0.52
2023-06-16T21:52:19.714Z,0.60
2023-06-16T21:54:21.239Z,0.45
2023-06-16T21:56:22.869Z,0.50
2023-06-16T21:58:24.609Z,0.50
2023-06-16T22:00:26.144Z,0.43
2023-06-16T22:02:28.323Z,0.57
2023-06-16T22:04:30.274Z,0.50
2023-06-16T22:06:32.529Z,0.43
2023-06-16T22:08:34.157Z,0.60
2023-06-16T22:10:35.889Z,0.40
2023-06-16T22:12:38.359Z,0.60
2023-06-16T22:14:40.061Z,0.55
2023-06-16T22:16:42.179Z,0.52
2023-06-16T22:18:43.770Z,0.50
2023-06-16T22:20:46.450Z,0.40
2023-06-16T22:22:48.034Z,0.55
2023-06-16T22:24:49.760Z,0.65
2023-06-16T22:26:51.762Z,0.52
2023-06-16T22:28:53.392Z,0.55
2023-06-16T22:30:55.080Z,0.50
2023-06-16T22:32:58.287Z,0.50
2023-06-16T22:35:00.034Z,0.50
2023-06-16T22:37:02.249Z,0.50
2023-06-16T22:39:04.627Z,0.60
2023-06-16T22:41:06.640Z,0.50
2023-06-16T22:43:08.257Z,0.50
2023-06-16T22:45:11.514Z,0.50
2023-06-16T22:47:14.059Z,0.52
2023-06-16T22:49:16.536Z,0.60
2023-06-16T22:51:20.159Z,0.50
2023-06-16T22:53:21.792Z,0.50
2023-06-16T22:55:23.464Z,0.40
2023-06-16T22:57:25.089Z,0.40
2023-06-16T22:59:28.368Z,0.40
2023-06-16T23:01:29.981Z,0.60
2023-06-16T23:03:31.683Z,0.60
2023-06-16T23:05:33.508Z,0.60
2023-06-16T23:07:35.108Z,0.40
2023-06-16T23:09:36.747Z,0.52
2023-06-16T23:11:38.673Z,0.43
2023-06-16T23:13:40.305Z,0.50
2023-06-16T23:15:42.580Z,0.43
2023-06-16T23:17:44.206Z,0.50
2023-06-16T23:19:45.997Z,0.60
2023-06-16T23:21:48.468Z,0.60
2023-06-16T23:23:50.311Z,0.50
2023-06-16T23:25:56.044Z,0.50
2023-06-16T23:28:00.826Z,0.60
2023-06-16T23:30:02.646Z,0.50
2023-06-16T23:32:05.654Z,0.40
2023-06-16T23:34:07.379Z,0.55
2023-06-16T23:36:09.117Z,0.50
2023-06-16T23:38:10.719Z,0.40
2023-06-16T23:40:13.200Z,0.40
2023-06-16T23:42:14.763Z,0.50
2023-06-16T23:44:16.906Z,0.57
2023-06-16T23:46:19.933Z,0.40
2023-06-16T23:48:21.639Z,0.47
2023-06-16T23:50:23.489Z,0.40
2023-06-16T23:52:26.373Z,0.40
2023-06-16T23:54:27.927Z,0.40
2023-06-16T23:56:29.697Z,0.45
2023-06-16T23:58:31.559Z,0.43
